Aviation Digital Data Service (ADDS)

Output produced by METARs form (1725 UTC 09 December 2016)
found at http://aviationweather.gov/adds/metars/
 
KEWR 091723Z 0918/1024 29021G30KT P6SM BKN050 
     FM092300 30013G22KT P6SM SCT050 
     FM100500 29010KT P6SM FEW040 SCT150 
     FM101400 27011G19KT P6SM BKN050 BKN150